Startpagina
METAR-TAF:

METAR-TAF

Vliegvelden :

Oostende, België

Internationale Luchthaven Oostende-Brugge

breedte: 51-12N, lengte: 002-52E, hoogte: 4 m

Actueel weer

Dit bericht is 21 minuten geleden gemaakt, om 02:50 UTC
Wind 12 kt uit het westen
Temperatuur 17°C
Vochtigheid 82%
Druk 1016 hPa
Zicht 10 km of meer
geen wolken onder 1500 m en geen cumulonimbus

METAR: EBOS 240250Z 26012KT CAVOK 17/14 Q1016 NOSIG

Tijdstip: 05:11 (03:11 UTC)

Verwachting

Dit bericht is 3 uur en het 56 minuten geleden gemaakt, om 23:15 UTC
Verwachting geldig van 24 om 00 UTC tot 25 om 06 UTC
Wind 10 kt uit het westen
Zicht 10 km of meer
Weinig wolken op 2500 ft
Kans 30% :
Tijdelijke
van 24 om 03 UTC tot 24 om 06 UTC
Gebroken wolken op 800 ft

TAF: EBOS 232315Z 2400/2506 26010KT 9999 FEW025 PROB30 TEMPO 2403/2406 BKN008

Waarnemingen en weersverwachtingen van meer dan 4000 vliegvelden (METAR en TAF).

De beschikbare stations zijn de gele en rode punten op de kaart.

Ga met uw muis naar het station om de naam te zien.

Klik dan om waarnemingen en weersverwachtingen te zien.

kaart wijzigen: klik op de groene knoppen met een zwart kruis om in te zoomen, op de groene knop met een streepje om uit te zoomen of op de groene pijlen voor aangrenzende kaarten.


METAR-TAF: